sensor_id;sensor_type;location;lat;lon;timestamp;temperature;humidity
31975;DHT22;18500;43.618;1.474;2023-05-07T00:00:28;16.10;1.00
31975;DHT22;18500;43.618;1.474;2023-05-07T00:02:53;16.10;1.00
31975;DHT22;18500;43.618;1.474;2023-05-07T00:05:19;16.20;1.00
31975;DHT22;18500;43.618;1.474;2023-05-07T00:07:44;16.20;1.00
31975;DHT22;18500;43.618;1.474;2023-05-07T00:10:10;16.30;99.90
31975;DHT22;18500;43.618;1.474;2023-05-07T00:12:38;16.30;99.90
31975;DHT22;18500;43.618;1.474;2023-05-07T00:15:04;16.30;99.90
31975;DHT22;18500;43.618;1.474;2023-05-07T00:17:30;16.20;99.90
31975;DHT22;18500;43.618;1.474;2023-05-07T00:19:56;16.30;99.90
31975;DHT22;18500;43.618;1.474;2023-05-07T00:22:22;16.20;99.90
31975;DHT22;18500;43.618;1.474;2023-05-07T00:24:47;16.20;99.90
31975;DHT22;18500;43.618;1.474;2023-05-07T00:27:13;16.40;99.90
31975;DHT22;18500;43.618;1.474;2023-05-07T00:29:39;16.40;99.90
31975;DHT22;18500;43.618;1.474;2023-05-07T00:32:04;16.30;99.90
31975;DHT22;18500;43.618;1.474;2023-05-07T00:34:30;16.30;99.90
31975;DHT22;18500;43.618;1.474;2023-05-07T00:36:56;16.10;99.90
31975;DHT22;18500;43.618;1.474;2023-05-07T00:39:21;16.30;99.90
31975;DHT22;18500;43.618;1.474;2023-05-07T00:41:47;16.40;99.90
31975;DHT22;18500;43.618;1.474;2023-05-07T00:44:13;16.30;99.90
31975;DHT22;18500;43.618;1.474;2023-05-07T00:46:40;16.40;99.90
31975;DHT22;18500;43.618;1.474;2023-05-07T00:49:06;16.20;99.90
31975;DHT22;18500;43.618;1.474;2023-05-07T00:51:32;16.10;99.90
31975;DHT22;18500;43.618;1.474;2023-05-07T00:54:02;16.10;99.90
31975;DHT22;18500;43.618;1.474;2023-05-07T00:56:28;16.10;99.90
31975;DHT22;18500;43.618;1.474;2023-05-07T00:58:54;16.10;99.90
31975;DHT22;18500;43.618;1.474;2023-05-07T01:01:20;16.20;1.00
31975;DHT22;18500;43.618;1.474;2023-05-07T01:03:45;16.20;1.00
31975;DHT22;18500;43.618;1.474;2023-05-07T01:06:12;16.20;99.90
31975;DHT22;18500;43.618;1.474;2023-05-07T01:08:39;16.20;99.90
31975;DHT22;18500;43.618;1.474;2023-05-07T01:11:07;16.30;60.10
31975;DHT22;18500;43.618;1.474;2023-05-07T01:13:34;16.10;96.50
31975;DHT22;18500;43.618;1.474;2023-05-07T01:16:00;16.30;67.70
31975;DHT22;18500;43.618;1.474;2023-05-07T01:18:26;16.30;58.10
31975;DHT22;18500;43.618;1.474;2023-05-07T01:20:52;16.30;17.00
31975;DHT22;18500;43.618;1.474;2023-05-07T01:23:18;16.10;1.00
31975;DHT22;18500;43.618;1.474;2023-05-07T01:25:54;16.30;1.00
31975;DHT22;18500;43.618;1.474;2023-05-07T01:28:20;16.30;1.00
31975;DHT22;18500;43.618;1.474;2023-05-07T01:30:51;16.30;1.00
31975;DHT22;18500;43.618;1.474;2023-05-07T01:33:20;16.10;1.00
31975;DHT22;18500;43.618;1.474;2023-05-07T01:35:50;16.10;1.00
31975;DHT22;18500;43.618;1.474;2023-05-07T01:38:16;16.10;1.00
31975;DHT22;18500;43.618;1.474;2023-05-07T01:40:43;15.90;1.00
31975;DHT22;18500;43.618;1.474;2023-05-07T01:43:09;16.00;1.00
31975;DHT22;18500;43.618;1.474;2023-05-07T01:45:36;15.90;1.00
31975;DHT22;18500;43.618;1.474;2023-05-07T01:48:02;15.80;99.90
31975;DHT22;18500;43.618;1.474;2023-05-07T01:50:29;15.70;99.90
31975;DHT22;18500;43.618;1.474;2023-05-07T01:52:56;15.70;99.90
31975;DHT22;18500;43.618;1.474;2023-05-07T01:55:21;15.60;99.90
31975;DHT22;18500;43.618;1.474;2023-05-07T01:57:47;15.70;99.90
31975;DHT22;18500;43.618;1.474;2023-05-07T02:00:13;15.70;99.90
31975;DHT22;18500;43.618;1.474;2023-05-07T02:02:39;15.70;99.90
31975;DHT22;18500;43.618;1.474;2023-05-07T02:05:05;15.80;91.20
31975;DHT22;18500;43.618;1.474;2023-05-07T02:07:30;15.60;41.90
31975;DHT22;18500;43.618;1.474;2023-05-07T02:09:56;15.50;1.00
31975;DHT22;18500;43.618;1.474;2023-05-07T02:12:22;15.60;1.00
31975;DHT22;18500;43.618;1.474;2023-05-07T02:14:48;15.60;1.00
31975;DHT22;18500;43.618;1.474;2023-05-07T02:17:14;15.60;1.00
31975;DHT22;18500;43.618;1.474;2023-05-07T02:19:39;15.50;1.00
31975;DHT22;18500;43.618;1.474;2023-05-07T02:22:05;15.50;1.00
31975;DHT22;18500;43.618;1.474;2023-05-07T02:24:31;15.50;99.90
31975;DHT22;18500;43.618;1.474;2023-05-07T02:26:56;15.50;99.90
31975;DHT22;18500;43.618;1.474;2023-05-07T02:29:22;15.50;99.90
31975;DHT22;18500;43.618;1.474;2023-05-07T02:31:48;15.50;99.90
31975;DHT22;18500;43.618;1.474;2023-05-07T02:34:16;15.60;99.90
31975;DHT22;18500;43.618;1.474;2023-05-07T02:36:42;15.60;99.90
31975;DHT22;18500;43.618;1.474;2023-05-07T02:39:08;15.60;99.90
31975;DHT22;18500;43.618;1.474;2023-05-07T02:41:34;15.50;99.90
31975;DHT22;18500;43.618;1.474;2023-05-07T02:43:59;15.40;41.30
31975;DHT22;18500;43.618;1.474;2023-05-07T02:46:25;15.40;1.00
31975;DHT22;18500;43.618;1.474;2023-05-07T02:48:51;15.40;1.00
31975;DHT22;18500;43.618;1.474;2023-05-07T02:51:20;15.50;1.00
31975;DHT22;18500;43.618;1.474;2023-05-07T02:53:46;15.50;1.00
31975;DHT22;18500;43.618;1.474;2023-05-07T02:56:11;15.50;1.00
31975;DHT22;18500;43.618;1.474;2023-05-07T02:58:37;15.50;1.00
31975;DHT22;18500;43.618;1.474;2023-05-07T03:01:07;15.40;1.00
31975;DHT22;18500;43.618;1.474;2023-05-07T03:03:33;15.30;1.00
31975;DHT22;18500;43.618;1.474;2023-05-07T03:05:59;15.30;1.00
31975;DHT22;18500;43.618;1.474;2023-05-07T03:08:25;15.20;99.90
31975;DHT22;18500;43.618;1.474;2023-05-07T03:10:51;15.20;99.90
31975;DHT22;18500;43.618;1.474;2023-05-07T03:13:16;15.20;99.90
31975;DHT22;18500;43.618;1.474;2023-05-07T03:15:42;15.30;99.90
31975;DHT22;18500;43.618;1.474;2023-05-07T03:18:08;15.20;99.90
31975;DHT22;18500;43.618;1.474;2023-05-07T03:20:33;15.30;99.90
31975;DHT22;18500;43.618;1.474;2023-05-07T03:23:00;15.20;99.90
31975;DHT22;18500;43.618;1.474;2023-05-07T03:25:25;15.20;99.90
31975;DHT22;18500;43.618;1.474;2023-05-07T03:27:51;15.10;99.90
31975;DHT22;18500;43.618;1.474;2023-05-07T03:30:17;15.00;99.90
31975;DHT22;18500;43.618;1.474;2023-05-07T03:32:42;15.10;97.70
31975;DHT22;18500;43.618;1.474;2023-05-07T03:35:08;15.10;51.00
31975;DHT22;18500;43.618;1.474;2023-05-07T03:37:34;15.10;1.00
31975;DHT22;18500;43.618;1.474;2023-05-07T03:39:59;15.00;1.00
31975;DHT22;18500;43.618;1.474;2023-05-07T03:42:25;14.90;1.00
31975;DHT22;18500;43.618;1.474;2023-05-07T03:44:51;14.90;1.00
31975;DHT22;18500;43.618;1.474;2023-05-07T03:47:16;14.90;1.00
31975;DHT22;18500;43.618;1.474;2023-05-07T03:49:42;15.00;1.00
31975;DHT22;18500;43.618;1.474;2023-05-07T03:52:08;15.00;1.00
31975;DHT22;18500;43.618;1.474;2023-05-07T03:54:33;15.10;1.00
31975;DHT22;18500;43.618;1.474;2023-05-07T03:56:59;15.10;1.00
31975;DHT22;18500;43.618;1.474;2023-05-07T03:59:24;15.00;1.00
31975;DHT22;18500;43.618;1.474;2023-05-07T04:01:50;15.00;99.90
31975;DHT22;18500;43.618;1.474;2023-05-07T04:04:16;14.90;99.90
31975;DHT22;18500;43.618;1.474;2023-05-07T04:06:42;14.90;99.90
31975;DHT22;18500;43.618;1.474;2023-05-07T04:09:08;14.90;99.90
31975;DHT22;18500;43.618;1.474;2023-05-07T04:11:34;14.80;99.90
31975;DHT22;18500;43.618;1.474;2023-05-07T04:14:00;14.60;99.90
31975;DHT22;18500;43.618;1.474;2023-05-07T04:16:25;14.70;99.90
31975;DHT22;18500;43.618;1.474;2023-05-07T04:18:51;14.60;99.90
31975;DHT22;18500;43.618;1.474;2023-05-07T04:21:18;14.50;99.90
31975;DHT22;18500;43.618;1.474;2023-05-07T04:23:44;14.50;85.20
31975;DHT22;18500;43.618;1.474;2023-05-07T04:26:10;14.50;19.60
31975;DHT22;18500;43.618;1.474;2023-05-07T04:28:36;14.50;1.00
31975;DHT22;18500;43.618;1.474;2023-05-07T04:31:01;14.50;1.00
31975;DHT22;18500;43.618;1.474;2023-05-07T04:33:27;14.50;1.00
31975;DHT22;18500;43.618;1.474;2023-05-07T04:35:53;14.50;1.00
31975;DHT22;18500;43.618;1.474;2023-05-07T04:38:18;14.50;1.00
31975;DHT22;18500;43.618;1.474;2023-05-07T04:40:44;14.50;1.00
31975;DHT22;18500;43.618;1.474;2023-05-07T04:43:10;14.60;1.00
31975;DHT22;18500;43.618;1.474;2023-05-07T04:45:36;14.60;1.00
31975;DHT22;18500;43.618;1.474;2023-05-07T04:48:02;14.60;1.00
31975;DHT22;18500;43.618;1.474;2023-05-07T04:50:28;14.60;1.00
31975;DHT22;18500;43.618;1.474;2023-05-07T04:52:53;14.60;1.00
31975;DHT22;18500;43.618;1.474;2023-05-07T04:55:19;14.60;1.00
31975;DHT22;18500;43.618;1.474;2023-05-07T04:57:45;14.50;99.90
31975;DHT22;18500;43.618;1.474;2023-05-07T05:00:11;14.50;99.90
31975;DHT22;18500;43.618;1.474;2023-05-07T05:02:40;14.50;99.90
31975;DHT22;18500;43.618;1.474;2023-05-07T05:05:06;14.50;99.90
31975;DHT22;18500;43.618;1.474;2023-05-07T05:07:32;14.50;99.90
31975;DHT22;18500;43.618;1.474;2023-05-07T05:09:58;14.50;99.90
31975;DHT22;18500;43.618;1.474;2023-05-07T05:12:24;14.20;99.90
31975;DHT22;18500;43.618;1.474;2023-05-07T05:14:50;14.30;99.90
31975;DHT22;18500;43.618;1.474;2023-05-07T05:17:15;14.20;99.90
31975;DHT22;18500;43.618;1.474;2023-05-07T05:19:41;14.30;91.70
31975;DHT22;18500;43.618;1.474;2023-05-07T05:22:07;14.20;1.00
31975;DHT22;18500;43.618;1.474;2023-05-07T05:24:32;14.30;1.00
31975;DHT22;18500;43.618;1.474;2023-05-07T05:26:58;14.30;99.90
31975;DHT22;18500;43.618;1.474;2023-05-07T05:29:26;14.20;99.90
31975;DHT22;18500;43.618;1.474;2023-05-07T05:31:52;14.30;99.90
31975;DHT22;18500;43.618;1.474;2023-05-07T05:34:18;14.40;72.10
31975;DHT22;18500;43.618;1.474;2023-05-07T05:36:45;14.40;1.00
31975;DHT22;18500;43.618;1.474;2023-05-07T05:39:10;14.40;1.00
31975;DHT22;18500;43.618;1.474;2023-05-07T05:41:36;14.40;99.90
31975;DHT22;18500;43.618;1.474;2023-05-07T05:44:02;14.40;99.90
31975;DHT22;18500;43.618;1.474;2023-05-07T05:46:27;14.40;1.00
31975;DHT22;18500;43.618;1.474;2023-05-07T05:48:53;14.30;99.90
31975;DHT22;18500;43.618;1.474;2023-05-07T05:51:20;14.20;1.00
31975;DHT22;18500;43.618;1.474;2023-05-07T05:53:45;14.30;1.00
31975;DHT22;18500;43.618;1.474;2023-05-07T05:56:11;14.30;99.90
31975;DHT22;18500;43.618;1.474;2023-05-07T05:58:37;14.40;99.90
31975;DHT22;18500;43.618;1.474;2023-05-07T06:01:03;14.40;99.90
31975;DHT22;18500;43.618;1.474;2023-05-07T06:03:28;14.50;99.90
31975;DHT22;18500;43.618;1.474;2023-05-07T06:05:54;14.50;99.90
31975;DHT22;18500;43.618;1.474;2023-05-07T06:08:20;14.60;99.90
31975;DHT22;18500;43.618;1.474;2023-05-07T06:10:46;14.60;95.20
31975;DHT22;18500;43.618;1.474;2023-05-07T06:13:11;14.60;88.50
31975;DHT22;18500;43.618;1.474;2023-05-07T06:15:37;14.70;76.30
31975;DHT22;18500;43.618;1.474;2023-05-07T06:18:02;14.70;61.30
31975;DHT22;18500;43.618;1.474;2023-05-07T06:20:28;14.70;58.20
31975;DHT22;18500;43.618;1.474;2023-05-07T06:22:54;14.70;50.70
31975;DHT22;18500;43.618;1.474;2023-05-07T06:25:19;14.70;49.10
31975;DHT22;18500;43.618;1.474;2023-05-07T06:27:45;14.70;43.40
31975;DHT22;18500;43.618;1.474;2023-05-07T06:30:11;14.70;40.90
31975;DHT22;18500;43.618;1.474;2023-05-07T06:32:37;14.80;37.10
31975;DHT22;18500;43.618;1.474;2023-05-07T06:35:02;14.90;33.00
31975;DHT22;18500;43.618;1.474;2023-05-07T06:37:28;14.90;28.20
31975;DHT22;18500;43.618;1.474;2023-05-07T06:39:54;14.90;23.50
31975;DHT22;18500;43.618;1.474;2023-05-07T06:42:19;14.90;20.10
31975;DHT22;18500;43.618;1.474;2023-05-07T06:44:45;14.80;13.50
31975;DHT22;18500;43.618;1.474;2023-05-07T06:47:10;14.80;9.60
31975;DHT22;18500;43.618;1.474;2023-05-07T06:49:36;14.80;2.20
31975;DHT22;18500;43.618;1.474;2023-05-07T06:52:02;14.80;1.00
31975;DHT22;18500;43.618;1.474;2023-05-07T06:54:28;14.80;1.00
31975;DHT22;18500;43.618;1.474;2023-05-07T06:56:54;14.80;1.00
31975;DHT22;18500;43.618;1.474;2023-05-07T06:59:20;14.80;1.00
31975;DHT22;18500;43.618;1.474;2023-05-07T07:01:45;14.90;1.00
31975;DHT22;18500;43.618;1.474;2023-05-07T07:04:11;15.10;1.00
31975;DHT22;18500;43.618;1.474;2023-05-07T07:06:37;15.30;1.00
31975;DHT22;18500;43.618;1.474;2023-05-07T07:09:02;15.40;1.00
31975;DHT22;18500;43.618;1.474;2023-05-07T07:11:28;15.30;1.00
31975;DHT22;18500;43.618;1.474;2023-05-07T07:13:54;15.20;1.00
31975;DHT22;18500;43.618;1.474;2023-05-07T07:16:21;15.20;1.00
31975;DHT22;18500;43.618;1.474;2023-05-07T07:18:46;15.20;1.00
31975;DHT22;18500;43.618;1.474;2023-05-07T07:21:12;15.20;1.00
31975;DHT22;18500;43.618;1.474;2023-05-07T07:23:37;15.30;1.00
31975;DHT22;18500;43.618;1.474;2023-05-07T07:26:03;15.30;1.00
31975;DHT22;18500;43.618;1.474;2023-05-07T07:28:29;15.40;1.00
31975;DHT22;18500;43.618;1.474;2023-05-07T07:30:54;15.50;1.00
31975;DHT22;18500;43.618;1.474;2023-05-07T07:33:20;15.70;1.00
31975;DHT22;18500;43.618;1.474;2023-05-07T07:35:46;15.80;1.00
31975;DHT22;18500;43.618;1.474;2023-05-07T07:38:11;15.70;1.00
31975;DHT22;18500;43.618;1.474;2023-05-07T07:40:37;15.80;1.00
31975;DHT22;18500;43.618;1.474;2023-05-07T07:43:02;15.80;1.00
31975;DHT22;18500;43.618;1.474;2023-05-07T07:45:28;15.80;1.00
31975;DHT22;18500;43.618;1.474;2023-05-07T07:47:54;15.90;1.00
31975;DHT22;18500;43.618;1.474;2023-05-07T07:50:20;16.10;1.00
31975;DHT22;18500;43.618;1.474;2023-05-07T07:52:45;16.30;1.00
31975;DHT22;18500;43.618;1.474;2023-05-07T07:55:11;16.40;1.00
31975;DHT22;18500;43.618;1.474;2023-05-07T07:57:37;16.50;1.00
31975;DHT22;18500;43.618;1.474;2023-05-07T08:00:03;16.60;1.00
31975;DHT22;18500;43.618;1.474;2023-05-07T08:02:29;16.80;1.00
31975;DHT22;18500;43.618;1.474;2023-05-07T08:04:55;16.80;1.00
31975;DHT22;18500;43.618;1.474;2023-05-07T08:07:21;16.80;1.00
31975;DHT22;18500;43.618;1.474;2023-05-07T08:09:48;16.80;1.00
31975;DHT22;18500;43.618;1.474;2023-05-07T08:12:14;16.70;1.00
31975;DHT22;18500;43.618;1.474;2023-05-07T08:14:40;16.80;1.00
31975;DHT22;18500;43.618;1.474;2023-05-07T08:17:06;17.00;1.00
31975;DHT22;18500;43.618;1.474;2023-05-07T08:19:32;17.10;1.00
31975;DHT22;18500;43.618;1.474;2023-05-07T08:21:57;17.20;1.00
31975;DHT22;18500;43.618;1.474;2023-05-07T08:24:23;17.30;1.00
31975;DHT22;18500;43.618;1.474;2023-05-07T08:26:49;17.50;1.00
31975;DHT22;18500;43.618;1.474;2023-05-07T08:29:15;17.50;1.00
31975;DHT22;18500;43.618;1.474;2023-05-07T08:31:41;17.60;1.00
31975;DHT22;18500;43.618;1.474;2023-05-07T08:34:07;17.70;1.00
31975;DHT22;18500;43.618;1.474;2023-05-07T08:36:33;17.50;1.00
31975;DHT22;18500;43.618;1.474;2023-05-07T08:38:59;17.40;1.00
31975;DHT22;18500;43.618;1.474;2023-05-07T08:41:25;17.40;1.00
31975;DHT22;18500;43.618;1.474;2023-05-07T08:43:51;17.70;1.00
31975;DHT22;18500;43.618;1.474;2023-05-07T08:46:19;17.80;1.00
31975;DHT22;18500;43.618;1.474;2023-05-07T08:48:47;18.00;1.00
31975;DHT22;18500;43.618;1.474;2023-05-07T08:51:15;18.30;1.00
31975;DHT22;18500;43.618;1.474;2023-05-07T08:53:41;18.20;1.00
31975;DHT22;18500;43.618;1.474;2023-05-07T08:56:08;17.90;1.00
31975;DHT22;18500;43.618;1.474;2023-05-07T08:58:35;17.90;1.00
31975;DHT22;18500;43.618;1.474;2023-05-07T09:01:08;17.80;1.00
31975;DHT22;18500;43.618;1.474;2023-05-07T09:03:35;17.70;1.00
31975;DHT22;18500;43.618;1.474;2023-05-07T09:06:01;18.00;1.00
31975;DHT22;18500;43.618;1.474;2023-05-07T09:08:27;18.10;1.00
31975;DHT22;18500;43.618;1.474;2023-05-07T09:10:53;17.90;1.00
31975;DHT22;18500;43.618;1.474;2023-05-07T09:13:19;17.80;1.00
31975;DHT22;18500;43.618;1.474;2023-05-07T09:15:45;18.00;1.00
31975;DHT22;18500;43.618;1.474;2023-05-07T09:18:10;18.10;1.00
31975;DHT22;18500;43.618;1.474;2023-05-07T09:20:37;18.30;1.00
31975;DHT22;18500;43.618;1.474;2023-05-07T09:23:03;18.50;1.00
31975;DHT22;18500;43.618;1.474;2023-05-07T09:25:30;18.80;1.00
31975;DHT22;18500;43.618;1.474;2023-05-07T09:27:56;18.60;1.00
31975;DHT22;18500;43.618;1.474;2023-05-07T09:30:22;18.50;1.00
31975;DHT22;18500;43.618;1.474;2023-05-07T09:32:48;18.50;1.00
31975;DHT22;18500;43.618;1.474;2023-05-07T09:35:17;18.50;1.00
31975;DHT22;18500;43.618;1.474;2023-05-07T09:37:43;18.30;1.00
31975;DHT22;18500;43.618;1.474;2023-05-07T09:40:20;18.50;1.00
31975;DHT22;18500;43.618;1.474;2023-05-07T09:42:46;18.80;1.00
31975;DHT22;18500;43.618;1.474;2023-05-07T09:45:13;18.70;1.00
31975;DHT22;18500;43.618;1.474;2023-05-07T09:47:39;18.50;1.00
31975;DHT22;18500;43.618;1.474;2023-05-07T09:50:10;18.10;1.00
31975;DHT22;18500;43.618;1.474;2023-05-07T09:52:39;17.70;1.00
31975;DHT22;18500;43.618;1.474;2023-05-07T09:55:06;17.60;1.00
31975;DHT22;18500;43.618;1.474;2023-05-07T09:57:33;17.60;1.00
31975;DHT22;18500;43.618;1.474;2023-05-07T10:00:02;17.80;1.00
31975;DHT22;18500;43.618;1.474;2023-05-07T10:02:30;17.70;1.00
31975;DHT22;18500;43.618;1.474;2023-05-07T10:04:56;17.70;1.00
31975;DHT22;18500;43.618;1.474;2023-05-07T10:07:24;17.50;1.00
31975;DHT22;18500;43.618;1.474;2023-05-07T10:09:50;17.10;1.00
31975;DHT22;18500;43.618;1.474;2023-05-07T10:12:17;17.00;1.00
31975;DHT22;18500;43.618;1.474;2023-05-07T10:14:45;17.00;1.00
31975;DHT22;18500;43.618;1.474;2023-05-07T10:17:13;17.20;1.00
31975;DHT22;18500;43.618;1.474;2023-05-07T10:19:43;17.50;1.00
31975;DHT22;18500;43.618;1.474;2023-05-07T10:22:10;17.50;1.00
31975;DHT22;18500;43.618;1.474;2023-05-07T10:24:36;17.80;1.00
31975;DHT22;18500;43.618;1.474;2023-05-07T10:27:07;18.10;1.00
31975;DHT22;18500;43.618;1.474;2023-05-07T10:32:43;18.10;1.00
31975;DHT22;18500;43.618;1.474;2023-05-07T10:35:25;18.30;1.00
31975;DHT22;18500;43.618;1.474;2023-05-07T10:37:52;18.90;1.00
31975;DHT22;18500;43.618;1.474;2023-05-07T10:40:19;19.20;1.00
31975;DHT22;18500;43.618;1.474;2023-05-07T10:42:59;19.80;1.00
31975;DHT22;18500;43.618;1.474;2023-05-07T10:45:26;19.60;1.00
31975;DHT22;18500;43.618;1.474;2023-05-07T10:48:15;19.70;1.00
31975;DHT22;18500;43.618;1.474;2023-05-07T10:50:43;19.10;1.00
31975;DHT22;18500;43.618;1.474;2023-05-07T10:55:47;18.80;1.00
31975;DHT22;18500;43.618;1.474;2023-05-07T10:58:29;18.50;1.00
31975;DHT22;18500;43.618;1.474;2023-05-07T11:00:59;18.60;1.00
31975;DHT22;18500;43.618;1.474;2023-05-07T11:03:27;18.80;1.00
31975;DHT22;18500;43.618;1.474;2023-05-07T11:06:11;19.60;1.00
31975;DHT22;18500;43.618;1.474;2023-05-07T11:08:53;20.30;1.00
31975;DHT22;18500;43.618;1.474;2023-05-07T11:11:20;20.70;1.00
31975;DHT22;18500;43.618;1.474;2023-05-07T11:13:49;20.20;1.00
31975;DHT22;18500;43.618;1.474;2023-05-07T11:16:25;20.00;1.00
31975;DHT22;18500;43.618;1.474;2023-05-07T11:18:54;20.50;1.00
31975;DHT22;18500;43.618;1.474;2023-05-07T11:21:40;20.40;1.00
31975;DHT22;18500;43.618;1.474;2023-05-07T11:24:07;20.10;1.00
31975;DHT22;18500;43.618;1.474;2023-05-07T11:26:47;19.70;1.00
31975;DHT22;18500;43.618;1.474;2023-05-07T11:29:22;20.20;1.00
31975;DHT22;18500;43.618;1.474;2023-05-07T11:31:49;20.30;1.00
31975;DHT22;18500;43.618;1.474;2023-05-07T11:34:21;20.70;1.00
31975;DHT22;18500;43.618;1.474;2023-05-07T11:36:47;21.10;1.00
31975;DHT22;18500;43.618;1.474;2023-05-07T11:39:24;21.00;1.00
31975;DHT22;18500;43.618;1.474;2023-05-07T11:41:50;21.10;1.00
31975;DHT22;18500;43.618;1.474;2023-05-07T11:44:16;21.00;1.00
31975;DHT22;18500;43.618;1.474;2023-05-07T11:46:43;21.20;1.00
31975;DHT22;18500;43.618;1.474;2023-05-07T11:49:09;20.80;1.00
31975;DHT22;18500;43.618;1.474;2023-05-07T11:51:35;21.10;1.00
31975;DHT22;18500;43.618;1.474;2023-05-07T11:54:04;21.60;1.00
31975;DHT22;18500;43.618;1.474;2023-05-07T11:56:34;21.10;1.00
31975;DHT22;18500;43.618;1.474;2023-05-07T11:59:01;21.10;1.00
31975;DHT22;18500;43.618;1.474;2023-05-07T12:01:26;21.20;1.00
31975;DHT22;18500;43.618;1.474;2023-05-07T12:03:52;20.60;1.00
31975;DHT22;18500;43.618;1.474;2023-05-07T12:06:18;21.00;1.00
31975;DHT22;18500;43.618;1.474;2023-05-07T12:08:44;21.50;1.00
31975;DHT22;18500;43.618;1.474;2023-05-07T12:11:22;21.20;1.00
31975;DHT22;18500;43.618;1.474;2023-05-07T12:13:47;21.10;1.00
31975;DHT22;18500;43.618;1.474;2023-05-07T12:16:14;20.90;1.00
31975;DHT22;18500;43.618;1.474;2023-05-07T12:18:40;20.60;1.00
31975;DHT22;18500;43.618;1.474;2023-05-07T12:21:07;21.70;1.00
31975;DHT22;18500;43.618;1.474;2023-05-07T12:23:34;21.40;1.00
31975;DHT22;18500;43.618;1.474;2023-05-07T12:26:01;21.30;1.00
31975;DHT22;18500;43.618;1.474;2023-05-07T12:28:26;20.90;1.00
31975;DHT22;18500;43.618;1.474;2023-05-07T12:30:52;22.30;1.00
31975;DHT22;18500;43.618;1.474;2023-05-07T12:33:23;27.80;1.00
31975;DHT22;18500;43.618;1.474;2023-05-07T12:35:48;31.60;1.00
31975;DHT22;18500;43.618;1.474;2023-05-07T12:38:17;31.50;1.00
31975;DHT22;18500;43.618;1.474;2023-05-07T12:40:48;26.60;1.00
31975;DHT22;18500;43.618;1.474;2023-05-07T12:43:27;24.80;1.00
31975;DHT22;18500;43.618;1.474;2023-05-07T12:45:59;23.20;1.00
31975;DHT22;18500;43.618;1.474;2023-05-07T12:48:25;21.90;1.00
31975;DHT22;18500;43.618;1.474;2023-05-07T12:50:56;21.60;1.00
31975;DHT22;18500;43.618;1.474;2023-05-07T12:53:24;22.00;1.00
31975;DHT22;18500;43.618;1.474;2023-05-07T12:55:54;22.40;1.00
31975;DHT22;18500;43.618;1.474;2023-05-07T13:00:50;27.50;1.00
31975;DHT22;18500;43.618;1.474;2023-05-07T13:03:34;30.80;1.00
31975;DHT22;18500;43.618;1.474;2023-05-07T13:06:03;31.90;1.00
31975;DHT22;18500;43.618;1.474;2023-05-07T13:08:31;27.60;1.00
31975;DHT22;18500;43.618;1.474;2023-05-07T13:10:58;29.60;1.00
31975;DHT22;18500;43.618;1.474;2023-05-07T13:13:24;28.70;1.00
31975;DHT22;18500;43.618;1.474;2023-05-07T13:15:50;30.00;1.00
31975;DHT22;18500;43.618;1.474;2023-05-07T13:18:16;33.10;1.00
31975;DHT22;18500;43.618;1.474;2023-05-07T13:20:42;32.70;1.00
31975;DHT22;18500;43.618;1.474;2023-05-07T13:23:07;35.20;1.00
31975;DHT22;18500;43.618;1.474;2023-05-07T13:25:33;36.20;1.00
31975;DHT22;18500;43.618;1.474;2023-05-07T13:27:59;35.70;1.00
31975;DHT22;18500;43.618;1.474;2023-05-07T13:30:24;34.00;1.00
31975;DHT22;18500;43.618;1.474;2023-05-07T13:32:52;29.40;1.00
31975;DHT22;18500;43.618;1.474;2023-05-07T13:35:17;26.70;1.00
31975;DHT22;18500;43.618;1.474;2023-05-07T13:37:43;24.90;1.00
31975;DHT22;18500;43.618;1.474;2023-05-07T13:40:09;25.00;1.00
31975;DHT22;18500;43.618;1.474;2023-05-07T13:42:35;23.80;1.00
31975;DHT22;18500;43.618;1.474;2023-05-07T13:45:00;22.80;1.00
31975;DHT22;18500;43.618;1.474;2023-05-07T13:47:28;22.80;1.00
31975;DHT22;18500;43.618;1.474;2023-05-07T13:49:54;23.10;1.00
31975;DHT22;18500;43.618;1.474;2023-05-07T13:52:19;23.70;1.00
31975;DHT22;18500;43.618;1.474;2023-05-07T13:54:45;23.40;1.00
31975;DHT22;18500;43.618;1.474;2023-05-07T13:57:11;23.20;1.00
31975;DHT22;18500;43.618;1.474;2023-05-07T13:59:37;22.40;1.00
31975;DHT22;18500;43.618;1.474;2023-05-07T14:02:02;22.10;1.00
31975;DHT22;18500;43.618;1.474;2023-05-07T14:04:28;21.80;1.00
31975;DHT22;18500;43.618;1.474;2023-05-07T14:06:53;21.50;1.00
31975;DHT22;18500;43.618;1.474;2023-05-07T14:09:19;21.90;1.00
31975;DHT22;18500;43.618;1.474;2023-05-07T14:11:45;28.90;1.00
31975;DHT22;18500;43.618;1.474;2023-05-07T14:14:12;29.90;1.00
31975;DHT22;18500;43.618;1.474;2023-05-07T14:16:38;34.30;1.00
31975;DHT22;18500;43.618;1.474;2023-05-07T14:19:04;37.10;1.00
31975;DHT22;18500;43.618;1.474;2023-05-07T14:21:30;38.00;1.00
31975;DHT22;18500;43.618;1.474;2023-05-07T14:23:56;38.40;1.00
31975;DHT22;18500;43.618;1.474;2023-05-07T14:26:22;37.20;1.00
31975;DHT22;18500;43.618;1.474;2023-05-07T14:28:48;36.50;1.00
31975;DHT22;18500;43.618;1.474;2023-05-07T14:31:14;35.90;1.00
31975;DHT22;18500;43.618;1.474;2023-05-07T14:33:40;36.70;99.90
31975;DHT22;18500;43.618;1.474;2023-05-07T14:36:05;36.20;1.00
31975;DHT22;18500;43.618;1.474;2023-05-07T14:38:31;35.60;99.90
31975;DHT22;18500;43.618;1.474;2023-05-07T14:40:58;33.50;99.90
31975;DHT22;18500;43.618;1.474;2023-05-07T14:43:24;28.80;1.00
31975;DHT22;18500;43.618;1.474;2023-05-07T14:45:49;26.00;1.00
31975;DHT22;18500;43.618;1.474;2023-05-07T14:48:15;24.60;1.00
31975;DHT22;18500;43.618;1.474;2023-05-07T14:50:42;24.00;1.00
31975;DHT22;18500;43.618;1.474;2023-05-07T14:53:07;23.50;1.00
31975;DHT22;18500;43.618;1.474;2023-05-07T14:55:34;22.70;1.00
31975;DHT22;18500;43.618;1.474;2023-05-07T14:58:00;22.60;1.00
31975;DHT22;18500;43.618;1.474;2023-05-07T15:00:26;22.20;1.00
31975;DHT22;18500;43.618;1.474;2023-05-07T15:02:51;22.20;1.00
31975;DHT22;18500;43.618;1.474;2023-05-07T15:05:17;22.30;1.00
31975;DHT22;18500;43.618;1.474;2023-05-07T15:07:44;22.60;1.00
31975;DHT22;18500;43.618;1.474;2023-05-07T15:10:10;23.20;1.00
31975;DHT22;18500;43.618;1.474;2023-05-07T15:12:36;23.90;1.00
31975;DHT22;18500;43.618;1.474;2023-05-07T15:15:01;24.20;1.00
31975;DHT22;18500;43.618;1.474;2023-05-07T15:17:27;24.10;1.00
31975;DHT22;18500;43.618;1.474;2023-05-07T15:19:53;23.90;1.00
31975;DHT22;18500;43.618;1.474;2023-05-07T15:22:19;23.20;1.00
31975;DHT22;18500;43.618;1.474;2023-05-07T15:24:46;22.80;1.00
31975;DHT22;18500;43.618;1.474;2023-05-07T15:27:12;22.50;1.00
31975;DHT22;18500;43.618;1.474;2023-05-07T15:29:37;22.70;1.00
31975;DHT22;18500;43.618;1.474;2023-05-07T15:32:03;22.60;1.00
31975;DHT22;18500;43.618;1.474;2023-05-07T15:34:29;22.90;1.00
31975;DHT22;18500;43.618;1.474;2023-05-07T15:36:56;22.90;1.00
31975;DHT22;18500;43.618;1.474;2023-05-07T15:39:24;22.40;1.00
31975;DHT22;18500;43.618;1.474;2023-05-07T15:41:50;20.00;99.90
31975;DHT22;18500;43.618;1.474;2023-05-07T15:44:16;18.50;99.90
31975;DHT22;18500;43.618;1.474;2023-05-07T15:46:41;17.90;99.90